sensor_id;sensor_type;location;lat;lon;timestamp;P1;P2;P0
31330;PMS5003;34067;39.548;-76.088;2023-04-25T00:01:19;7;6;
31330;PMS5003;34067;39.548;-76.088;2023-04-25T00:03:47;7;7;
31330;PMS5003;34067;39.548;-76.088;2023-04-25T00:06:15;7;7;
31330;PMS5003;34067;39.548;-76.088;2023-04-25T00:08:43;8;8;
31330;PMS5003;34067;39.548;-76.088;2023-04-25T00:11:12;9;8;
31330;PMS5003;34067;39.548;-76.088;2023-04-25T00:13:40;8;8;
31330;PMS5003;34067;39.548;-76.088;2023-04-25T00:16:08;9;8;
31330;PMS5003;34067;39.548;-76.088;2023-04-25T00:18:36;8;8;
31330;PMS5003;34067;39.548;-76.088;2023-04-25T00:21:04;8;7;
31330;PMS5003;34067;39.548;-76.088;2023-04-25T00:23:33;8;8;
31330;PMS5003;34067;39.548;-76.088;2023-04-25T00:26:01;9;8;
31330;PMS5003;34067;39.548;-76.088;2023-04-25T00:28:29;8;7;
31330;PMS5003;34067;39.548;-76.088;2023-04-25T00:30:57;8;8;
31330;PMS5003;34067;39.548;-76.088;2023-04-25T00:33:25;13;11;
31330;PMS5003;34067;39.548;-76.088;2023-04-25T00:35:52;8;6;
31330;PMS5003;34067;39.548;-76.088;2023-04-25T00:38:20;8;7;
31330;PMS5003;34067;39.548;-76.088;2023-04-25T00:40:49;7;6;
31330;PMS5003;34067;39.548;-76.088;2023-04-25T00:43:17;8;8;
31330;PMS5003;34067;39.548;-76.088;2023-04-25T00:45:45;7;7;
31330;PMS5003;34067;39.548;-76.088;2023-04-25T00:48:14;9;8;
31330;PMS5003;34067;39.548;-76.088;2023-04-25T00:50:43;8;7;
31330;PMS5003;34067;39.548;-76.088;2023-04-25T00:53:18;8;8;
31330;PMS5003;34067;39.548;-76.088;2023-04-25T00:55:47;11;11;
31330;PMS5003;34067;39.548;-76.088;2023-04-25T00:58:15;11;11;
31330;PMS5003;34067;39.548;-76.088;2023-04-25T01:00:43;10;10;
31330;PMS5003;34067;39.548;-76.088;2023-04-25T01:03:12;10;10;
31330;PMS5003;34067;39.548;-76.088;2023-04-25T01:05:40;8;8;
31330;PMS5003;34067;39.548;-76.088;2023-04-25T01:08:08;8;7;
31330;PMS5003;34067;39.548;-76.088;2023-04-25T01:10:37;10;9;
31330;PMS5003;34067;39.548;-76.088;2023-04-25T01:13:04;8;8;
31330;PMS5003;34067;39.548;-76.088;2023-04-25T01:15:33;9;9;
31330;PMS5003;34067;39.548;-76.088;2023-04-25T01:18:01;9;9;
31330;PMS5003;34067;39.548;-76.088;2023-04-25T01:20:29;8;8;
31330;PMS5003;34067;39.548;-76.088;2023-04-25T01:22:59;8;8;
31330;PMS5003;34067;39.548;-76.088;2023-04-25T01:25:28;7;7;
31330;PMS5003;34067;39.548;-76.088;2023-04-25T01:27:57;9;9;
31330;PMS5003;34067;39.548;-76.088;2023-04-25T01:30:26;7;7;
31330;PMS5003;34067;39.548;-76.088;2023-04-25T01:32:54;8;8;
31330;PMS5003;34067;39.548;-76.088;2023-04-25T01:35:23;6;6;
31330;PMS5003;34067;39.548;-76.088;2023-04-25T01:37:51;9;8;
31330;PMS5003;34067;39.548;-76.088;2023-04-25T01:40:20;7;7;
31330;PMS5003;34067;39.548;-76.088;2023-04-25T01:42:49;6;6;
31330;PMS5003;34067;39.548;-76.088;2023-04-25T01:45:18;6;6;
31330;PMS5003;34067;39.548;-76.088;2023-04-25T01:47:46;6;6;
31330;PMS5003;34067;39.548;-76.088;2023-04-25T01:50:14;7;7;
31330;PMS5003;34067;39.548;-76.088;2023-04-25T01:52:43;6;6;
31330;PMS5003;34067;39.548;-76.088;2023-04-25T01:55:11;7;7;
31330;PMS5003;34067;39.548;-76.088;2023-04-25T01:57:40;6;6;
31330;PMS5003;34067;39.548;-76.088;2023-04-25T02:00:08;5;5;
31330;PMS5003;34067;39.548;-76.088;2023-04-25T02:02:37;6;6;
31330;PMS5003;34067;39.548;-76.088;2023-04-25T02:05:05;6;6;
31330;PMS5003;34067;39.548;-76.088;2023-04-25T02:07:34;6;6;
31330;PMS5003;34067;39.548;-76.088;2023-04-25T02:10:03;7;7;
31330;PMS5003;34067;39.548;-76.088;2023-04-25T02:12:31;5;5;
31330;PMS5003;34067;39.548;-76.088;2023-04-25T02:14:59;8;8;
31330;PMS5003;34067;39.548;-76.088;2023-04-25T02:17:27;5;5;
31330;PMS5003;34067;39.548;-76.088;2023-04-25T02:19:55;6;6;
31330;PMS5003;34067;39.548;-76.088;2023-04-25T02:22:23;5;5;
31330;PMS5003;34067;39.548;-76.088;2023-04-25T02:24:52;7;7;
31330;PMS5003;34067;39.548;-76.088;2023-04-25T02:27:21;6;6;
31330;PMS5003;34067;39.548;-76.088;2023-04-25T02:29:49;8;8;
31330;PMS5003;34067;39.548;-76.088;2023-04-25T02:32:17;8;7;
31330;PMS5003;34067;39.548;-76.088;2023-04-25T02:34:45;7;7;
31330;PMS5003;34067;39.548;-76.088;2023-04-25T02:37:14;7;7;
31330;PMS5003;34067;39.548;-76.088;2023-04-25T02:39:42;7;7;
31330;PMS5003;34067;39.548;-76.088;2023-04-25T02:42:10;8;8;
31330;PMS5003;34067;39.548;-76.088;2023-04-25T02:44:38;9;8;
31330;PMS5003;34067;39.548;-76.088;2023-04-25T02:47:06;8;8;
31330;PMS5003;34067;39.548;-76.088;2023-04-25T02:49:35;7;7;
31330;PMS5003;34067;39.548;-76.088;2023-04-25T02:52:03;7;7;
31330;PMS5003;34067;39.548;-76.088;2023-04-25T02:54:31;7;7;
31330;PMS5003;34067;39.548;-76.088;2023-04-25T02:56:59;8;7;
31330;PMS5003;34067;39.548;-76.088;2023-04-25T02:59:28;7;6;
31330;PMS5003;34067;39.548;-76.088;2023-04-25T03:01:56;8;8;
31330;PMS5003;34067;39.548;-76.088;2023-04-25T03:04:24;7;7;
31330;PMS5003;34067;39.548;-76.088;2023-04-25T03:06:53;8;7;
31330;PMS5003;34067;39.548;-76.088;2023-04-25T03:09:21;9;7;
31330;PMS5003;34067;39.548;-76.088;2023-04-25T03:11:49;8;8;
31330;PMS5003;34067;39.548;-76.088;2023-04-25T03:14:17;8;8;
31330;PMS5003;34067;39.548;-76.088;2023-04-25T03:16:45;7;7;
31330;PMS5003;34067;39.548;-76.088;2023-04-25T03:19:14;8;7;
31330;PMS5003;34067;39.548;-76.088;2023-04-25T03:21:42;7;7;
31330;PMS5003;34067;39.548;-76.088;2023-04-25T03:24:11;7;7;
31330;PMS5003;34067;39.548;-76.088;2023-04-25T03:26:38;8;7;
31330;PMS5003;34067;39.548;-76.088;2023-04-25T03:29:07;8;8;
31330;PMS5003;34067;39.548;-76.088;2023-04-25T03:31:35;7;7;
31330;PMS5003;34067;39.548;-76.088;2023-04-25T03:34:03;7;7;
31330;PMS5003;34067;39.548;-76.088;2023-04-25T03:36:31;6;6;
31330;PMS5003;34067;39.548;-76.088;2023-04-25T03:38:59;8;8;
31330;PMS5003;34067;39.548;-76.088;2023-04-25T03:41:27;9;9;
31330;PMS5003;34067;39.548;-76.088;2023-04-25T03:43:55;8;7;
31330;PMS5003;34067;39.548;-76.088;2023-04-25T03:46:23;8;8;
31330;PMS5003;34067;39.548;-76.088;2023-04-25T03:48:52;8;7;
31330;PMS5003;34067;39.548;-76.088;2023-04-25T03:51:20;9;8;
31330;PMS5003;34067;39.548;-76.088;2023-04-25T03:53:49;7;7;
31330;PMS5003;34067;39.548;-76.088;2023-04-25T03:56:16;7;7;
31330;PMS5003;34067;39.548;-76.088;2023-04-25T03:58:45;7;7;
31330;PMS5003;34067;39.548;-76.088;2023-04-25T04:01:13;7;7;
31330;PMS5003;34067;39.548;-76.088;2023-04-25T04:03:41;9;9;
31330;PMS5003;34067;39.548;-76.088;2023-04-25T04:06:09;9;7;
31330;PMS5003;34067;39.548;-76.088;2023-04-25T04:08:37;8;8;
31330;PMS5003;34067;39.548;-76.088;2023-04-25T04:11:05;8;7;
31330;PMS5003;34067;39.548;-76.088;2023-04-25T04:13:32;6;6;
31330;PMS5003;34067;39.548;-76.088;2023-04-25T04:16:00;7;7;
31330;PMS5003;34067;39.548;-76.088;2023-04-25T04:18:27;8;7;
31330;PMS5003;34067;39.548;-76.088;2023-04-25T04:20:54;7;7;
31330;PMS5003;34067;39.548;-76.088;2023-04-25T04:23:22;7;7;
31330;PMS5003;34067;39.548;-76.088;2023-04-25T04:25:50;7;7;
31330;PMS5003;34067;39.548;-76.088;2023-04-25T04:28:18;7;7;
31330;PMS5003;34067;39.548;-76.088;2023-04-25T04:30:46;8;7;
31330;PMS5003;34067;39.548;-76.088;2023-04-25T04:33:13;9;9;
31330;PMS5003;34067;39.548;-76.088;2023-04-25T04:35:41;9;8;
31330;PMS5003;34067;39.548;-76.088;2023-04-25T04:38:09;7;7;
31330;PMS5003;34067;39.548;-76.088;2023-04-25T04:40:36;9;9;
31330;PMS5003;34067;39.548;-76.088;2023-04-25T04:43:04;8;8;
31330;PMS5003;34067;39.548;-76.088;2023-04-25T04:45:31;7;7;
31330;PMS5003;34067;39.548;-76.088;2023-04-25T04:47:58;7;7;
31330;PMS5003;34067;39.548;-76.088;2023-04-25T04:50:26;8;7;
31330;PMS5003;34067;39.548;-76.088;2023-04-25T04:52:55;8;8;
31330;PMS5003;34067;39.548;-76.088;2023-04-25T04:55:22;7;7;
31330;PMS5003;34067;39.548;-76.088;2023-04-25T04:57:51;10;8;
31330;PMS5003;34067;39.548;-76.088;2023-04-25T05:03:09;7;6;
31330;PMS5003;34067;39.548;-76.088;2023-04-25T05:05:37;6;6;
31330;PMS5003;34067;39.548;-76.088;2023-04-25T05:08:05;7;7;
31330;PMS5003;34067;39.548;-76.088;2023-04-25T05:10:33;6;6;
31330;PMS5003;34067;39.548;-76.088;2023-04-25T05:13:01;7;7;
31330;PMS5003;34067;39.548;-76.088;2023-04-25T05:15:28;7;7;
31330;PMS5003;34067;39.548;-76.088;2023-04-25T05:17:56;8;8;
31330;PMS5003;34067;39.548;-76.088;2023-04-25T05:20:23;7;7;
31330;PMS5003;34067;39.548;-76.088;2023-04-25T05:22:51;9;8;
31330;PMS5003;34067;39.548;-76.088;2023-04-25T05:25:19;7;7;
31330;PMS5003;34067;39.548;-76.088;2023-04-25T05:27:47;7;7;
31330;PMS5003;34067;39.548;-76.088;2023-04-25T05:30:14;9;8;
31330;PMS5003;34067;39.548;-76.088;2023-04-25T05:32:42;9;8;
31330;PMS5003;34067;39.548;-76.088;2023-04-25T05:35:09;7;6;
31330;PMS5003;34067;39.548;-76.088;2023-04-25T05:37:37;6;6;
31330;PMS5003;34067;39.548;-76.088;2023-04-25T05:40:05;9;8;
31330;PMS5003;34067;39.548;-76.088;2023-04-25T05:42:34;9;9;
31330;PMS5003;34067;39.548;-76.088;2023-04-25T05:45:01;9;8;
31330;PMS5003;34067;39.548;-76.088;2023-04-25T05:47:29;8;7;
31330;PMS5003;34067;39.548;-76.088;2023-04-25T05:49:58;8;6;
31330;PMS5003;34067;39.548;-76.088;2023-04-25T05:52:26;8;7;
31330;PMS5003;34067;39.548;-76.088;2023-04-25T05:54:53;8;8;
31330;PMS5003;34067;39.548;-76.088;2023-04-25T05:57:21;9;9;
31330;PMS5003;34067;39.548;-76.088;2023-04-25T05:59:50;8;7;
31330;PMS5003;34067;39.548;-76.088;2023-04-25T06:02:18;8;7;
31330;PMS5003;34067;39.548;-76.088;2023-04-25T06:04:48;7;7;
31330;PMS5003;34067;39.548;-76.088;2023-04-25T06:07:17;7;7;
31330;PMS5003;34067;39.548;-76.088;2023-04-25T06:09:46;7;7;
31330;PMS5003;34067;39.548;-76.088;2023-04-25T06:12:14;8;7;
31330;PMS5003;34067;39.548;-76.088;2023-04-25T06:14:42;7;7;
31330;PMS5003;34067;39.548;-76.088;2023-04-25T06:17:09;7;6;
31330;PMS5003;34067;39.548;-76.088;2023-04-25T06:19:37;8;7;
31330;PMS5003;34067;39.548;-76.088;2023-04-25T06:22:05;7;6;
31330;PMS5003;34067;39.548;-76.088;2023-04-25T06:24:33;6;6;
31330;PMS5003;34067;39.548;-76.088;2023-04-25T06:27:01;6;6;
31330;PMS5003;34067;39.548;-76.088;2023-04-25T06:29:29;7;7;
31330;PMS5003;34067;39.548;-76.088;2023-04-25T06:31:57;7;7;
31330;PMS5003;34067;39.548;-76.088;2023-04-25T06:34:25;8;7;
31330;PMS5003;34067;39.548;-76.088;2023-04-25T06:36:52;8;8;
31330;PMS5003;34067;39.548;-76.088;2023-04-25T06:39:20;6;6;
31330;PMS5003;34067;39.548;-76.088;2023-04-25T06:41:48;7;6;
31330;PMS5003;34067;39.548;-76.088;2023-04-25T06:44:15;9;8;
31330;PMS5003;34067;39.548;-76.088;2023-04-25T06:46:44;7;6;
31330;PMS5003;34067;39.548;-76.088;2023-04-25T06:49:11;7;7;
31330;PMS5003;34067;39.548;-76.088;2023-04-25T06:51:40;7;7;
31330;PMS5003;34067;39.548;-76.088;2023-04-25T06:54:07;7;7;
31330;PMS5003;34067;39.548;-76.088;2023-04-25T06:56:36;10;9;
31330;PMS5003;34067;39.548;-76.088;2023-04-25T06:59:04;7;7;
31330;PMS5003;34067;39.548;-76.088;2023-04-25T07:01:31;7;7;
31330;PMS5003;34067;39.548;-76.088;2023-04-25T07:03:59;7;7;
31330;PMS5003;34067;39.548;-76.088;2023-04-25T07:06:26;9;7;
31330;PMS5003;34067;39.548;-76.088;2023-04-25T07:08:54;8;8;
31330;PMS5003;34067;39.548;-76.088;2023-04-25T07:11:22;6;6;
31330;PMS5003;34067;39.548;-76.088;2023-04-25T07:13:49;7;7;
31330;PMS5003;34067;39.548;-76.088;2023-04-25T07:16:16;7;7;
31330;PMS5003;34067;39.548;-76.088;2023-04-25T07:18:44;8;8;
31330;PMS5003;34067;39.548;-76.088;2023-04-25T07:21:12;8;8;
31330;PMS5003;34067;39.548;-76.088;2023-04-25T07:23:40;6;6;
31330;PMS5003;34067;39.548;-76.088;2023-04-25T07:26:07;6;6;
31330;PMS5003;34067;39.548;-76.088;2023-04-25T07:28:35;7;7;
31330;PMS5003;34067;39.548;-76.088;2023-04-25T07:31:03;7;6;
31330;PMS5003;34067;39.548;-76.088;2023-04-25T07:33:31;5;5;
31330;PMS5003;34067;39.548;-76.088;2023-04-25T07:35:59;7;7;
31330;PMS5003;34067;39.548;-76.088;2023-04-25T07:38:27;6;6;
31330;PMS5003;34067;39.548;-76.088;2023-04-25T07:40:54;5;5;
31330;PMS5003;34067;39.548;-76.088;2023-04-25T07:43:22;7;6;
31330;PMS5003;34067;39.548;-76.088;2023-04-25T07:45:49;5;5;
31330;PMS5003;34067;39.548;-76.088;2023-04-25T07:48:17;6;6;
31330;PMS5003;34067;39.548;-76.088;2023-04-25T07:50:46;9;8;
31330;PMS5003;34067;39.548;-76.088;2023-04-25T07:53:14;6;6;
31330;PMS5003;34067;39.548;-76.088;2023-04-25T07:55:43;7;7;
31330;PMS5003;34067;39.548;-76.088;2023-04-25T07:58:11;8;8;
31330;PMS5003;34067;39.548;-76.088;2023-04-25T08:00:39;7;6;
31330;PMS5003;34067;39.548;-76.088;2023-04-25T08:03:06;8;7;
31330;PMS5003;34067;39.548;-76.088;2023-04-25T08:05:35;5;5;
31330;PMS5003;34067;39.548;-76.088;2023-04-25T08:08:04;7;6;
31330;PMS5003;34067;39.548;-76.088;2023-04-25T08:10:33;6;6;
31330;PMS5003;34067;39.548;-76.088;2023-04-25T08:13:00;6;6;
31330;PMS5003;34067;39.548;-76.088;2023-04-25T08:15:28;6;6;
31330;PMS5003;34067;39.548;-76.088;2023-04-25T08:17:56;6;6;
31330;PMS5003;34067;39.548;-76.088;2023-04-25T08:20:23;6;6;
31330;PMS5003;34067;39.548;-76.088;2023-04-25T08:22:51;8;7;
31330;PMS5003;34067;39.548;-76.088;2023-04-25T08:25:18;7;7;
31330;PMS5003;34067;39.548;-76.088;2023-04-25T08:27:47;7;7;
31330;PMS5003;34067;39.548;-76.088;2023-04-25T08:30:15;6;6;
31330;PMS5003;34067;39.548;-76.088;2023-04-25T08:32:42;6;5;
31330;PMS5003;34067;39.548;-76.088;2023-04-25T08:35:10;6;5;
31330;PMS5003;34067;39.548;-76.088;2023-04-25T08:37:38;8;7;
31330;PMS5003;34067;39.548;-76.088;2023-04-25T08:40:06;7;7;
31330;PMS5003;34067;39.548;-76.088;2023-04-25T08:42:38;7;7;
31330;PMS5003;34067;39.548;-76.088;2023-04-25T08:45:08;6;6;
31330;PMS5003;34067;39.548;-76.088;2023-04-25T08:47:37;6;6;
31330;PMS5003;34067;39.548;-76.088;2023-04-25T08:50:06;7;7;
31330;PMS5003;34067;39.548;-76.088;2023-04-25T08:52:36;7;5;
31330;PMS5003;34067;39.548;-76.088;2023-04-25T08:55:07;6;5;
31330;PMS5003;34067;39.548;-76.088;2023-04-25T08:57:38;6;5;
31330;PMS5003;34067;39.548;-76.088;2023-04-25T09:00:09;7;7;
31330;PMS5003;34067;39.548;-76.088;2023-04-25T09:02:37;6;6;
31330;PMS5003;34067;39.548;-76.088;2023-04-25T09:05:07;7;7;
31330;PMS5003;34067;39.548;-76.088;2023-04-25T09:07:36;8;7;
31330;PMS5003;34067;39.548;-76.088;2023-04-25T09:10:03;9;7;
31330;PMS5003;34067;39.548;-76.088;2023-04-25T09:12:32;9;8;
31330;PMS5003;34067;39.548;-76.088;2023-04-25T09:15:03;6;5;
31330;PMS5003;34067;39.548;-76.088;2023-04-25T09:17:32;6;6;
31330;PMS5003;34067;39.548;-76.088;2023-04-25T09:20:08;8;6;
31330;PMS5003;34067;39.548;-76.088;2023-04-25T09:22:37;8;8;
31330;PMS5003;34067;39.548;-76.088;2023-04-25T09:25:09;11;9;
31330;PMS5003;34067;39.548;-76.088;2023-04-25T09:27:49;7;6;
31330;PMS5003;34067;39.548;-76.088;2023-04-25T09:30:18;7;7;
31330;PMS5003;34067;39.548;-76.088;2023-04-25T09:32:56;6;6;
31330;PMS5003;34067;39.548;-76.088;2023-04-25T09:35:32;6;6;
31330;PMS5003;34067;39.548;-76.088;2023-04-25T09:38:06;6;6;
31330;PMS5003;34067;39.548;-76.088;2023-04-25T09:40:39;9;9;
31330;PMS5003;34067;39.548;-76.088;2023-04-25T09:43:09;9;9;
31330;PMS5003;34067;39.548;-76.088;2023-04-25T09:45:41;7;7;
31330;PMS5003;34067;39.548;-76.088;2023-04-25T09:48:10;7;6;
31330;PMS5003;34067;39.548;-76.088;2023-04-25T09:50:38;7;7;
31330;PMS5003;34067;39.548;-76.088;2023-04-25T09:53:05;7;7;
31330;PMS5003;34067;39.548;-76.088;2023-04-25T09:55:34;8;8;
31330;PMS5003;34067;39.548;-76.088;2023-04-25T09:58:04;7;7;
31330;PMS5003;34067;39.548;-76.088;2023-04-25T10:00:32;9;8;
31330;PMS5003;34067;39.548;-76.088;2023-04-25T10:03:00;6;6;
31330;PMS5003;34067;39.548;-76.088;2023-04-25T10:05:29;8;8;
31330;PMS5003;34067;39.548;-76.088;2023-04-25T10:07:59;8;7;
31330;PMS5003;34067;39.548;-76.088;2023-04-25T10:10:29;7;7;
31330;PMS5003;34067;39.548;-76.088;2023-04-25T10:12:58;9;9;
31330;PMS5003;34067;39.548;-76.088;2023-04-25T10:15:27;9;8;
31330;PMS5003;34067;39.548;-76.088;2023-04-25T10:17:56;12;12;
31330;PMS5003;34067;39.548;-76.088;2023-04-25T10:20:25;13;13;
31330;PMS5003;34067;39.548;-76.088;2023-04-25T10:22:53;7;6;
31330;PMS5003;34067;39.548;-76.088;2023-04-25T10:25:25;12;12;
31330;PMS5003;34067;39.548;-76.088;2023-04-25T10:27:53;15;15;
31330;PMS5003;34067;39.548;-76.088;2023-04-25T10:30:21;16;15;
31330;PMS5003;34067;39.548;-76.088;2023-04-25T10:32:49;18;17;
31330;PMS5003;34067;39.548;-76.088;2023-04-25T10:35:17;17;17;
31330;PMS5003;34067;39.548;-76.088;2023-04-25T10:37:58;15;15;
31330;PMS5003;34067;39.548;-76.088;2023-04-25T10:40:29;16;16;
31330;PMS5003;34067;39.548;-76.088;2023-04-25T10:46:02;17;15;
31330;PMS5003;34067;39.548;-76.088;2023-04-25T10:48:44;16;16;
31330;PMS5003;34067;39.548;-76.088;2023-04-25T10:51:16;19;17;
31330;PMS5003;34067;39.548;-76.088;2023-04-25T10:53:45;14;13;
31330;PMS5003;34067;39.548;-76.088;2023-04-25T10:56:17;14;12;
31330;PMS5003;34067;39.548;-76.088;2023-04-25T10:58:46;15;15;
31330;PMS5003;34067;39.548;-76.088;2023-04-25T11:01:15;11;11;
31330;PMS5003;34067;39.548;-76.088;2023-04-25T11:03:57;13;12;
31330;PMS5003;34067;39.548;-76.088;2023-04-25T11:06:27;11;9;
31330;PMS5003;34067;39.548;-76.088;2023-04-25T11:09:02;8;8;
31330;PMS5003;34067;39.548;-76.088;2023-04-25T11:11:36;9;9;
31330;PMS5003;34067;39.548;-76.088;2023-04-25T11:14:04;12;11;
31330;PMS5003;34067;39.548;-76.088;2023-04-25T11:16:31;8;7;
31330;PMS5003;34067;39.548;-76.088;2023-04-25T11:19:00;12;11;
31330;PMS5003;34067;39.548;-76.088;2023-04-25T11:21:28;8;8;
31330;PMS5003;34067;39.548;-76.088;2023-04-25T11:23:57;9;9;
31330;PMS5003;34067;39.548;-76.088;2023-04-25T11:26:26;9;9;
31330;PMS5003;34067;39.548;-76.088;2023-04-25T11:28:58;10;9;
31330;PMS5003;34067;39.548;-76.088;2023-04-25T11:31:26;10;9;
31330;PMS5003;34067;39.548;-76.088;2023-04-25T11:33:54;13;9;
31330;PMS5003;34067;39.548;-76.088;2023-04-25T11:36:25;10;9;
31330;PMS5003;34067;39.548;-76.088;2023-04-25T11:38:53;15;14;
31330;PMS5003;34067;39.548;-76.088;2023-04-25T11:41:22;13;12;
31330;PMS5003;34067;39.548;-76.088;2023-04-25T11:43:50;10;10;
31330;PMS5003;34067;39.548;-76.088;2023-04-25T11:46:18;11;10;
31330;PMS5003;34067;39.548;-76.088;2023-04-25T11:48:46;8;8;
31330;PMS5003;34067;39.548;-76.088;2023-04-25T11:51:14;8;7;
31330;PMS5003;34067;39.548;-76.088;2023-04-25T11:53:44;9;9;
31330;PMS5003;34067;39.548;-76.088;2023-04-25T11:56:12;8;8;
31330;PMS5003;34067;39.548;-76.088;2023-04-25T11:58:57;9;8;
31330;PMS5003;34067;39.548;-76.088;2023-04-25T12:01:26;9;8;
31330;PMS5003;34067;39.548;-76.088;2023-04-25T12:03:55;9;9;
31330;PMS5003;34067;39.548;-76.088;2023-04-25T12:06:26;7;7;
31330;PMS5003;34067;39.548;-76.088;2023-04-25T12:09:02;8;7;
31330;PMS5003;34067;39.548;-76.088;2023-04-25T12:11:31;10;9;
31330;PMS5003;34067;39.548;-76.088;2023-04-25T12:14:02;7;6;
31330;PMS5003;34067;39.548;-76.088;2023-04-25T12:16:40;8;8;
31330;PMS5003;34067;39.548;-76.088;2023-04-25T12:19:09;8;8;
31330;PMS5003;34067;39.548;-76.088;2023-04-25T12:21:40;7;6;
31330;PMS5003;34067;39.548;-76.088;2023-04-25T12:24:10;6;6;
31330;PMS5003;34067;39.548;-76.088;2023-04-25T12:26:47;8;8;
31330;PMS5003;34067;39.548;-76.088;2023-04-25T12:29:16;9;8;
31330;PMS5003;34067;39.548;-76.088;2023-04-25T12:31:44;7;7;
31330;PMS5003;34067;39.548;-76.088;2023-04-25T12:34:13;9;8;
31330;PMS5003;34067;39.548;-76.088;2023-04-25T12:36:40;6;6;
31330;PMS5003;34067;39.548;-76.088;2023-04-25T12:39:09;6;6;
31330;PMS5003;34067;39.548;-76.088;2023-04-25T12:41:42;7;7;
31330;PMS5003;34067;39.548;-76.088;2023-04-25T12:44:10;6;6;
31330;PMS5003;34067;39.548;-76.088;2023-04-25T12:46:39;8;7;
31330;PMS5003;34067;39.548;-76.088;2023-04-25T12:49:07;7;6;
31330;PMS5003;34067;39.548;-76.088;2023-04-25T12:51:35;8;8;
31330;PMS5003;34067;39.548;-76.088;2023-04-25T12:54:04;8;7;
31330;PMS5003;34067;39.548;-76.088;2023-04-25T12:56:32;7;7;
31330;PMS5003;34067;39.548;-76.088;2023-04-25T12:59:01;6;6;
31330;PMS5003;34067;39.548;-76.088;2023-04-25T13:01:29;10;10;
31330;PMS5003;34067;39.548;-76.088;2023-04-25T13:03:57;8;8;
31330;PMS5003;34067;39.548;-76.088;2023-04-25T13:06:25;10;10;
31330;PMS5003;34067;39.548;-76.088;2023-04-25T13:08:55;11;8;
31330;PMS5003;34067;39.548;-76.088;2023-04-25T13:11:23;7;7;
31330;PMS5003;34067;39.548;-76.088;2023-04-25T13:13:50;7;7;
31330;PMS5003;34067;39.548;-76.088;2023-04-25T13:16:18;9;7;
31330;PMS5003;34067;39.548;-76.088;2023-04-25T13:18:46;7;7;
31330;PMS5003;34067;39.548;-76.088;2023-04-25T13:21:14;8;7;
31330;PMS5003;34067;39.548;-76.088;2023-04-25T13:23:42;7;6;
31330;PMS5003;34067;39.548;-76.088;2023-04-25T13:26:11;8;7;
31330;PMS5003;34067;39.548;-76.088;2023-04-25T13:28:39;8;7;
31330;PMS5003;34067;39.548;-76.088;2023-04-25T13:31:06;10;8;
31330;PMS5003;34067;39.548;-76.088;2023-04-25T13:33:35;7;7;
31330;PMS5003;34067;39.548;-76.088;2023-04-25T13:36:03;9;9;
31330;PMS5003;34067;39.548;-76.088;2023-04-25T13:38:31;9;8;
31330;PMS5003;34067;39.548;-76.088;2023-04-25T13:40:59;7;7;
31330;PMS5003;34067;39.548;-76.088;2023-04-25T13:43:28;7;7;
31330;PMS5003;34067;39.548;-76.088;2023-04-25T13:45:55;6;6;
31330;PMS5003;34067;39.548;-76.088;2023-04-25T13:48:23;11;10;
31330;PMS5003;34067;39.548;-76.088;2023-04-25T13:50:51;6;6;
31330;PMS5003;34067;39.548;-76.088;2023-04-25T13:53:18;6;6;
31330;PMS5003;34067;39.548;-76.088;2023-04-25T13:55:47;7;7;
31330;PMS5003;34067;39.548;-76.088;2023-04-25T13:58:14;8;7;
31330;PMS5003;34067;39.548;-76.088;2023-04-25T14:00:42;8;8;
31330;PMS5003;34067;39.548;-76.088;2023-04-25T14:03:10;7;7;
31330;PMS5003;34067;39.548;-76.088;2023-04-25T14:05:38;6;5;
31330;PMS5003;34067;39.548;-76.088;2023-04-25T14:08:07;7;6;
31330;PMS5003;34067;39.548;-76.088;2023-04-25T14:10:36;8;8;
31330;PMS5003;34067;39.548;-76.088;2023-04-25T14:13:04;7;7;
31330;PMS5003;34067;39.548;-76.088;2023-04-25T14:15:32;6;6;
31330;PMS5003;34067;39.548;-76.088;2023-04-25T14:18:00;8;7;
31330;PMS5003;34067;39.548;-76.088;2023-04-25T14:20:28;10;9;
31330;PMS5003;34067;39.548;-76.088;2023-04-25T14:22:57;9;9;
31330;PMS5003;34067;39.548;-76.088;2023-04-25T14:25:25;9;9;
31330;PMS5003;34067;39.548;-76.088;2023-04-25T14:27:55;8;7;
31330;PMS5003;34067;39.548;-76.088;2023-04-25T14:30:23;9;8;
31330;PMS5003;34067;39.548;-76.088;2023-04-25T14:32:51;10;10;
31330;PMS5003;34067;39.548;-76.088;2023-04-25T14:35:19;6;6;
31330;PMS5003;34067;39.548;-76.088;2023-04-25T14:37:47;6;5;
31330;PMS5003;34067;39.548;-76.088;2023-04-25T14:40:16;4;4;
31330;PMS5003;34067;39.548;-76.088;2023-04-25T14:42:44;8;7;
31330;PMS5003;34067;39.548;-76.088;2023-04-25T14:45:12;7;7;
31330;PMS5003;34067;39.548;-76.088;2023-04-25T14:47:40;7;6;
31330;PMS5003;34067;39.548;-76.088;2023-04-25T14:50:09;8;8;
31330;PMS5003;34067;39.548;-76.088;2023-04-25T14:52:37;8;7;
31330;PMS5003;34067;39.548;-76.088;2023-04-25T14:55:06;8;7;
31330;PMS5003;34067;39.548;-76.088;2023-04-25T14:57:34;7;6;
31330;PMS5003;34067;39.548;-76.088;2023-04-25T15:00:02;9;8;
31330;PMS5003;34067;39.548;-76.088;2023-04-25T15:02:32;5;5;
31330;PMS5003;34067;39.548;-76.088;2023-04-25T15:04:59;5;5;
31330;PMS5003;34067;39.548;-76.088;2023-04-25T15:07:27;7;6;
31330;PMS5003;34067;39.548;-76.088;2023-04-25T15:09:55;4;4;
31330;PMS5003;34067;39.548;-76.088;2023-04-25T15:12:23;8;7;
31330;PMS5003;34067;39.548;-76.088;2023-04-25T15:14:51;6;6;
31330;PMS5003;34067;39.548;-76.088;2023-04-25T15:17:19;5;5;
31330;PMS5003;34067;39.548;-76.088;2023-04-25T15:19:48;5;5;
31330;PMS5003;34067;39.548;-76.088;2023-04-25T15:22:16;4;4;
31330;PMS5003;34067;39.548;-76.088;2023-04-25T15:24:44;5;5;
31330;PMS5003;34067;39.548;-76.088;2023-04-25T15:27:12;4;4;
31330;PMS5003;34067;39.548;-76.088;2023-04-25T15:29:40;6;6;
31330;PMS5003;34067;39.548;-76.088;2023-04-25T15:32:09;7;7;
31330;PMS5003;34067;39.548;-76.088;2023-04-25T15:34:37;9;9;
31330;PMS5003;34067;39.548;-76.088;2023-04-25T15:37:05;11;11;
31330;PMS5003;34067;39.548;-76.088;2023-04-25T15:39:33;14;14;
31330;PMS5003;34067;39.548;-76.088;2023-04-25T15:42:02;10;10;
31330;PMS5003;34067;39.548;-76.088;2023-04-25T15:44:30;6;5;
31330;PMS5003;34067;39.548;-76.088;2023-04-25T15:46:58;6;6;
31330;PMS5003;34067;39.548;-76.088;2023-04-25T15:49:26;6;6;
31330;PMS5003;34067;39.548;-76.088;2023-04-25T15:51:55;8;8;
31330;PMS5003;34067;39.548;-76.088;2023-04-25T15:54:23;8;8;
31330;PMS5003;34067;39.548;-76.088;2023-04-25T15:56:51;10;9;
31330;PMS5003;34067;39.548;-76.088;2023-04-25T15:59:20;7;7;
31330;PMS5003;34067;39.548;-76.088;2023-04-25T16:01:47;8;7;
31330;PMS5003;34067;39.548;-76.088;2023-04-25T16:04:16;8;8;
31330;PMS5003;34067;39.548;-76.088;2023-04-25T16:06:44;7;7;
31330;PMS5003;34067;39.548;-76.088;2023-04-25T16:09:12;6;6;
31330;PMS5003;34067;39.548;-76.088;2023-04-25T16:11:40;8;7;
31330;PMS5003;34067;39.548;-76.088;2023-04-25T16:14:08;8;7;
31330;PMS5003;34067;39.548;-76.088;2023-04-25T16:16:36;6;6;
31330;PMS5003;34067;39.548;-76.088;2023-04-25T16:19:05;4;3;
31330;PMS5003;34067;39.548;-76.088;2023-04-25T16:21:33;6;5;
31330;PMS5003;34067;39.548;-76.088;2023-04-25T16:24:02;5;5;
31330;PMS5003;34067;39.548;-76.088;2023-04-25T16:26:30;4;4;
31330;PMS5003;34067;39.548;-76.088;2023-04-25T16:28:58;5;5;